createdAt,value
2024-03-05T00:00:03.898Z,113.40
2024-03-05T00:01:03.959Z,103.00
2024-03-05T00:02:03.907Z,98.40
2024-03-05T00:03:03.861Z,109.80
2024-03-05T00:04:03.845Z,99.90
2024-03-05T00:05:03.987Z,116.50
2024-03-05T00:06:03.851Z,109.10
2024-03-05T00:07:03.831Z,130.10
2024-03-05T00:08:03.972Z,102.30
2024-03-05T00:09:03.789Z,92.10
2024-03-05T00:10:03.806Z,87.40
2024-03-05T00:11:03.885Z,116.10
2024-03-05T00:12:03.759Z,103.40
2024-03-05T00:13:03.754Z,113.70
2024-03-05T00:14:03.739Z,101.40
2024-03-05T00:15:03.728Z,112.00
2024-03-05T00:16:03.741Z,118.60
2024-03-05T00:17:03.705Z,98.20
2024-03-05T00:18:03.699Z,105.90
2024-03-05T00:19:03.676Z,95.60
2024-03-05T00:20:03.670Z,125.20
2024-03-05T00:21:03.660Z,138.00
2024-03-05T00:22:03.654Z,124.70
2024-03-05T00:23:03.675Z,107.90
2024-03-05T00:24:03.674Z,99.50
2024-03-05T00:25:03.614Z,127.80
2024-03-05T00:26:24.630Z,94.90
2024-03-05T00:27:24.650Z,74.90
2024-03-05T00:28:24.637Z,106.00
2024-03-05T00:29:24.662Z,79.60
2024-03-05T00:30:24.601Z,82.90
2024-03-05T00:31:24.582Z,84.40
2024-03-05T00:32:24.561Z,87.40
2024-03-05T00:33:24.520Z,100.40
2024-03-05T00:34:24.641Z,112.10
2024-03-05T00:35:24.521Z,98.90
2024-03-05T00:36:24.505Z,75.90
2024-03-05T00:37:24.504Z,96.30
2024-03-05T00:38:29.101Z,120.10
2024-03-05T00:42:32.441Z,89.60
2024-03-05T00:43:33.425Z,94.40
2024-03-05T00:44:33.406Z,64.90
2024-03-05T00:45:33.404Z,67.80
2024-03-05T00:46:33.380Z,70.70
2024-03-05T00:47:33.405Z,159.20
2024-03-05T00:48:33.348Z,153.90
2024-03-05T00:49:33.346Z,105.30
2024-03-05T00:50:33.348Z,249.90
2024-03-05T00:51:33.309Z,62.00
2024-03-05T00:52:33.567Z,123.10
2024-03-05T00:53:33.313Z,176.80
2024-03-05T00:54:33.286Z,57.40
2024-03-05T00:55:33.296Z,187.10
2024-03-05T00:56:33.266Z,69.10
2024-03-05T00:57:33.250Z,53.50
2024-03-05T00:58:33.319Z,64.00
2024-03-05T00:59:33.270Z,115.40
2024-03-05T01:00:33.250Z,67.10
2024-03-05T01:01:33.293Z,95.60
2024-03-05T01:02:33.232Z,73.90
2024-03-05T01:03:33.195Z,120.50
2024-03-05T01:04:33.201Z,70.30
2024-03-05T01:05:33.178Z,106.20
2024-03-05T01:06:33.158Z,49.70
2024-03-05T01:07:33.141Z,70.40
2024-03-05T01:08:33.146Z,107.20
2024-03-05T01:09:33.111Z,92.40
2024-03-05T01:10:33.157Z,178.10
2024-03-05T01:11:33.194Z,63.50
2024-03-05T01:12:33.088Z,56.20
2024-03-05T01:13:33.090Z,54.00
2024-03-05T01:14:33.052Z,52.10
2024-03-05T01:15:33.052Z,57.20
2024-03-05T01:16:33.104Z,48.40
2024-03-05T01:17:33.086Z,50.80
2024-03-05T01:18:33.015Z,53.40
2024-03-05T01:19:33.009Z,44.10
2024-03-05T01:20:32.983Z,67.80
2024-03-05T01:21:32.972Z,67.20
2024-03-05T01:22:32.990Z,59.80
2024-03-05T01:23:33.017Z,47.70
2024-03-05T01:24:32.977Z,35.90
2024-03-05T01:25:32.949Z,44.20
2024-03-05T01:26:32.927Z,39.20
2024-03-05T01:27:32.901Z,49.20
2024-03-05T01:28:32.995Z,88.30
2024-03-05T01:29:32.926Z,86.50
2024-03-05T01:30:32.874Z,39.60
2024-03-05T01:31:32.932Z,36.80
2024-03-05T01:32:32.869Z,45.90
2024-03-05T01:33:32.833Z,38.70
2024-03-05T01:34:32.866Z,47.90
2024-03-05T01:35:32.847Z,60.60
2024-03-05T01:36:32.822Z,86.10
2024-03-05T01:37:32.817Z,57.70
2024-03-05T01:38:32.782Z,58.40
2024-03-05T01:39:32.789Z,59.90
2024-03-05T01:40:32.859Z,169.60
2024-03-05T01:41:32.759Z,218.90
2024-03-05T01:42:32.740Z,313.00
2024-03-05T01:43:32.784Z,156.20
2024-03-05T01:44:32.709Z,82.90
2024-03-05T01:45:32.699Z,175.00
2024-03-05T01:46:32.776Z,68.50
2024-03-05T01:47:32.722Z,98.70
2024-03-05T01:48:32.716Z,89.20
2024-03-05T01:49:32.649Z,111.90
2024-03-05T01:50:32.644Z,221.10
2024-03-05T01:51:32.627Z,178.20
2024-03-05T01:52:32.665Z,108.70
2024-03-05T01:53:32.576Z,62.20
2024-03-05T01:54:32.564Z,63.90
2024-03-05T01:55:32.570Z,92.60
2024-03-05T01:56:32.556Z,114.30
2024-03-05T01:57:32.541Z,77.40
2024-03-05T01:58:32.535Z,127.40
2024-03-05T01:59:32.512Z,108.20
2024-03-05T02:00:32.550Z,77.00
2024-03-05T02:01:32.609Z,133.20
2024-03-05T02:02:32.483Z,117.60
2024-03-05T02:03:32.461Z,180.30
2024-03-05T02:05:32.446Z,78.60
2024-03-05T02:06:32.458Z,177.10
2024-03-05T02:07:32.440Z,138.70
2024-03-05T02:08:32.420Z,78.20
2024-03-05T02:09:32.407Z,172.00
2024-03-05T02:10:32.455Z,130.40
2024-03-05T02:11:32.421Z,160.30
2024-03-05T02:12:32.386Z,212.00
2024-03-05T02:13:32.387Z,147.60
2024-03-05T02:14:32.346Z,132.00
2024-03-05T02:15:32.338Z,125.10
2024-03-05T02:16:32.334Z,140.10
2024-03-05T02:17:32.341Z,138.60
2024-03-05T02:18:32.293Z,134.20
2024-03-05T02:19:32.457Z,105.10
2024-03-05T02:20:32.281Z,86.70
2024-03-05T02:21:32.265Z,64.70
2024-03-05T02:22:32.291Z,75.40
2024-03-05T02:23:32.236Z,59.10
2024-03-05T02:24:32.268Z,57.30
2024-03-05T02:25:32.278Z,57.80
2024-03-05T02:26:32.201Z,115.20
2024-03-05T02:27:35.038Z,44.60
2024-03-05T02:28:32.227Z,50.90
2024-03-05T02:29:32.184Z,38.80
2024-03-05T02:30:32.153Z,38.70
2024-03-05T02:31:32.175Z,40.30
2024-03-05T02:32:32.205Z,33.90
2024-03-05T02:33:32.169Z,37.40
2024-03-05T02:34:32.125Z,34.10
2024-03-05T02:35:32.117Z,36.40
2024-03-05T02:36:32.120Z,36.60
2024-03-05T02:37:32.124Z,33.00
2024-03-05T02:38:32.094Z,37.70
2024-03-05T02:39:32.087Z,38.90
2024-03-05T02:40:32.076Z,36.30
2024-03-05T02:41:32.060Z,31.10
2024-03-05T02:42:32.025Z,30.30
2024-03-05T02:43:32.066Z,28.70
2024-03-05T02:44:32.016Z,31.70
2024-03-05T02:45:32.008Z,38.40
2024-03-05T02:46:32.002Z,37.00
2024-03-05T02:47:31.989Z,95.70
2024-03-05T02:48:31.967Z,105.30
2024-03-05T02:49:31.968Z,50.00
2024-03-05T02:50:31.936Z,51.10
2024-03-05T02:51:31.944Z,44.00
2024-03-05T02:52:31.942Z,36.50
2024-03-05T02:53:31.894Z,37.40
2024-03-05T02:54:31.913Z,37.00
2024-03-05T02:55:31.886Z,37.90
2024-03-05T02:56:31.862Z,38.40
2024-03-05T02:57:31.862Z,46.60
2024-03-05T02:58:31.858Z,44.00
2024-03-05T02:59:31.862Z,39.10
2024-03-05T03:00:31.834Z,36.40
2024-03-05T03:01:31.832Z,46.60
2024-03-05T03:02:31.797Z,40.00
2024-03-05T03:03:31.797Z,42.50
2024-03-05T03:04:31.840Z,40.20
2024-03-05T03:05:31.771Z,42.50
2024-03-05T03:06:31.767Z,41.00
2024-03-05T03:07:31.779Z,62.10
2024-03-05T03:08:31.736Z,52.10
2024-03-05T03:09:31.734Z,47.50
2024-03-05T03:10:31.730Z,49.90
2024-03-05T03:11:31.716Z,46.30
2024-03-05T03:12:31.700Z,41.20
2024-03-05T03:13:31.780Z,44.70
2024-03-05T03:14:31.672Z,51.80
2024-03-05T03:15:31.714Z,47.80
2024-03-05T03:16:31.656Z,50.10
2024-03-05T03:17:34.499Z,53.00
2024-03-05T03:18:31.613Z,45.20
2024-03-05T03:19:31.640Z,45.00
2024-03-05T03:20:31.624Z,45.60
2024-03-05T03:21:31.598Z,45.20
2024-03-05T03:22:31.625Z,57.50
2024-03-05T03:23:31.553Z,48.70
2024-03-05T03:24:31.563Z,57.00
2024-03-05T03:25:35.330Z,57.70
2024-03-05T03:26:31.578Z,55.10
2024-03-05T03:27:31.571Z,56.40
2024-03-05T03:28:31.554Z,48.20
2024-03-05T03:29:31.490Z,50.40
2024-03-05T03:30:31.515Z,50.20
2024-03-05T03:31:31.593Z,58.90
2024-03-05T03:32:31.462Z,65.70
2024-03-05T03:33:31.455Z,61.20
2024-03-05T03:34:31.527Z,79.70
2024-03-05T03:35:31.436Z,82.30
2024-03-05T03:36:31.443Z,72.40
2024-03-05T03:37:31.395Z,83.90
2024-03-05T03:38:31.403Z,69.60
2024-03-05T03:39:31.411Z,66.30
2024-03-05T03:40:31.413Z,78.60
2024-03-05T03:41:31.411Z,73.50
2024-03-05T03:42:31.370Z,75.40
2024-03-05T03:43:31.355Z,95.70
2024-03-05T03:44:31.335Z,77.00
2024-03-05T03:45:31.315Z,84.70
2024-03-05T03:46:31.324Z,93.60
2024-03-05T03:47:31.345Z,95.50
2024-03-05T03:48:31.289Z,74.50
2024-03-05T03:49:31.297Z,90.50
2024-03-05T03:50:31.268Z,101.50
2024-03-05T03:51:31.249Z,100.70
2024-03-05T03:52:31.301Z,86.80
2024-03-05T03:53:31.220Z,80.00
2024-03-05T03:54:31.213Z,84.50
2024-03-05T03:55:31.304Z,118.20
2024-03-05T03:56:31.195Z,121.80
2024-03-05T03:57:31.196Z,100.30
2024-03-05T03:58:31.195Z,90.30
2024-03-05T03:59:31.155Z,96.10
2024-03-05T04:00:31.141Z,100.10
2024-03-05T04:01:31.192Z,100.00
2024-03-05T04:02:31.174Z,100.50
2024-03-05T04:03:31.105Z,96.70
2024-03-05T04:04:31.152Z,77.40
2024-03-05T04:05:31.086Z,92.90
2024-03-05T04:06:31.077Z,83.70
2024-03-05T04:07:31.126Z,83.80
2024-03-05T04:08:31.073Z,105.40
2024-03-05T04:09:31.050Z,96.70
2024-03-05T04:10:31.105Z,89.10
2024-03-05T04:11:31.045Z,81.10
2024-03-05T04:12:31.012Z,88.60
2024-03-05T04:13:31.050Z,78.00
2024-03-05T04:14:31.006Z,110.70
2024-03-05T04:15:30.983Z,89.20
2024-03-05T04:16:31.028Z,83.50
2024-03-05T04:17:30.980Z,98.90
2024-03-05T04:18:30.961Z,86.60
2024-03-05T04:19:30.976Z,80.20
2024-03-05T04:20:30.915Z,82.30
2024-03-05T04:21:30.912Z,81.60
2024-03-05T04:22:30.946Z,92.20
2024-03-05T04:23:30.903Z,83.40
2024-03-05T04:24:30.881Z,94.40
2024-03-05T04:25:32.714Z,98.20
2024-03-05T04:26:30.851Z,100.90
2024-03-05T04:27:30.837Z,84.40
2024-03-05T04:28:30.883Z,87.70
2024-03-05T04:29:30.832Z,106.30
2024-03-05T04:30:30.817Z,102.70
2024-03-05T04:31:34.839Z,94.10
2024-03-05T04:32:30.874Z,93.70
2024-03-05T04:33:30.873Z,107.20
2024-03-05T04:34:30.794Z,100.70
2024-03-05T04:35:30.829Z,99.60
2024-03-05T04:36:30.763Z,103.20
2024-03-05T04:37:30.775Z,92.10
2024-03-05T04:38:30.720Z,97.30
2024-03-05T04:39:30.719Z,82.60
2024-03-05T04:40:30.746Z,92.10
2024-03-05T04:41:30.679Z,77.70
2024-03-05T04:42:30.686Z,72.40
2024-03-05T04:43:30.719Z,80.50
2024-03-05T04:44:30.675Z,98.70
2024-03-05T04:45:30.638Z,79.70
2024-03-05T04:46:30.653Z,77.60
2024-03-05T04:47:30.652Z,78.20
2024-03-05T04:48:30.606Z,88.30
2024-03-05T04:49:30.636Z,94.80
2024-03-05T04:50:30.595Z,96.20
2024-03-05T04:51:30.572Z,97.70
2024-03-05T04:52:32.911Z,90.30
2024-03-05T04:53:30.548Z,93.40
2024-03-05T04:54:30.541Z,83.30
2024-03-05T04:55:30.910Z,90.80
2024-03-05T04:56:30.551Z,88.60
2024-03-05T04:57:30.506Z,91.90
2024-03-05T04:58:30.517Z,85.10
2024-03-05T04:59:30.473Z,88.60
2024-03-05T05:00:30.511Z,75.80
2024-03-05T05:01:30.495Z,77.60
2024-03-05T05:02:30.504Z,76.90
2024-03-05T05:03:30.434Z,79.60
2024-03-05T05:04:30.438Z,74.40
2024-03-05T05:05:30.419Z,79.80
2024-03-05T05:06:30.414Z,87.00
2024-03-05T05:07:30.431Z,83.80
2024-03-05T05:08:30.387Z,88.00
2024-03-05T05:09:30.368Z,81.50
2024-03-05T05:10:30.416Z,79.40
2024-03-05T05:11:30.515Z,74.80
2024-03-05T05:12:30.355Z,86.20
2024-03-05T05:13:30.403Z,72.10
2024-03-05T05:14:30.353Z,81.80
2024-03-05T05:15:30.312Z,78.50
2024-03-05T05:16:30.361Z,88.80
2024-03-05T05:17:30.301Z,84.00
2024-03-05T05:18:30.296Z,85.80
2024-03-05T05:19:30.293Z,67.80
2024-03-05T05:20:30.251Z,77.50
2024-03-05T05:21:30.280Z,76.50
2024-03-05T05:22:30.275Z,83.60
2024-03-05T05:23:30.229Z,71.50
2024-03-05T05:24:30.228Z,70.80
2024-03-05T05:25:30.259Z,72.60
2024-03-05T05:26:30.192Z,88.90
2024-03-05T05:27:30.179Z,84.60
2024-03-05T05:28:30.413Z,80.70
2024-03-05T05:29:39.965Z,87.80
2024-03-05T05:30:30.172Z,90.00
2024-03-05T05:31:30.339Z,77.50
2024-03-05T05:32:30.229Z,74.60
2024-03-05T05:33:30.214Z,79.50
2024-03-05T05:34:30.229Z,72.40
2024-03-05T05:35:30.188Z,84.80
2024-03-05T05:36:30.170Z,87.20
2024-03-05T05:37:30.129Z,78.90
2024-03-05T05:38:30.061Z,87.20
2024-03-05T05:39:30.092Z,96.50
2024-03-05T05:40:30.063Z,85.20
2024-03-05T05:41:30.031Z,81.00
2024-03-05T05:42:30.046Z,78.30
2024-03-05T05:43:30.047Z,81.40
2024-03-05T05:44:29.973Z,89.20
2024-03-05T05:45:29.972Z,86.80
2024-03-05T05:46:30.000Z,73.10
2024-03-05T05:47:30.053Z,82.30
2024-03-05T05:48:30.322Z,82.80
2024-03-05T05:49:29.953Z,86.60
2024-03-05T05:50:30.630Z,96.40
2024-03-05T05:51:29.903Z,78.40
2024-03-05T05:52:29.944Z,78.90
2024-03-05T05:53:29.878Z,90.70
2024-03-05T05:54:29.934Z,100.60
2024-03-05T05:55:30.047Z,105.90
2024-03-05T05:56:29.903Z,93.80
2024-03-05T05:57:29.888Z,89.30
2024-03-05T05:58:29.867Z,101.80
2024-03-05T05:59:29.883Z,87.50
2024-03-05T06:00:29.811Z,100.40
2024-03-05T06:01:29.875Z,96.70
2024-03-05T06:02:29.869Z,82.10
2024-03-05T06:03:29.782Z,102.00
2024-03-05T06:04:29.804Z,93.50
2024-03-05T06:05:29.746Z,94.60
2024-03-05T06:06:29.766Z,92.20
2024-03-05T06:07:29.724Z,94.50
2024-03-05T06:08:29.722Z,100.50
2024-03-05T06:09:29.738Z,110.50
2024-03-05T06:10:29.732Z,105.80
2024-03-05T06:11:29.827Z,109.70
2024-03-05T06:12:29.761Z,117.20
2024-03-05T06:13:29.749Z,108.50
2024-03-05T06:14:29.705Z,119.80
2024-03-05T06:15:29.681Z,95.90
2024-03-05T06:16:29.696Z,93.10
2024-03-05T06:17:29.727Z,105.00
2024-03-05T06:18:29.632Z,99.50
2024-03-05T06:19:29.647Z,107.60
2024-03-05T06:20:29.622Z,104.20
2024-03-05T06:21:29.547Z,97.60
2024-03-05T06:22:34.155Z,110.10
2024-03-05T06:23:29.575Z,90.40
2024-03-05T06:24:29.543Z,98.80
2024-03-05T06:25:29.633Z,97.80
2024-03-05T06:26:29.518Z,106.80
2024-03-05T06:27:29.512Z,116.30
2024-03-05T06:28:29.589Z,91.10
2024-03-05T06:29:29.470Z,113.20
2024-03-05T06:30:29.550Z,106.90
2024-03-05T06:31:29.460Z,92.60
2024-03-05T06:32:29.471Z,99.00
2024-03-05T06:33:29.500Z,94.10
2024-03-05T06:34:29.475Z,100.60
2024-03-05T06:35:29.444Z,91.10
2024-03-05T06:36:29.408Z,87.40
2024-03-05T06:37:29.393Z,107.50
2024-03-05T06:38:29.488Z,90.90
2024-03-05T06:39:29.392Z,90.50
2024-03-05T06:40:30.367Z,102.50
2024-03-05T06:41:29.349Z,97.20
2024-03-05T06:42:29.367Z,93.40
2024-03-05T06:43:29.365Z,105.10
2024-03-05T06:44:29.319Z,105.50
2024-03-05T06:45:29.627Z,100.60
2024-03-05T06:46:29.327Z,97.50
2024-03-05T06:47:29.328Z,85.50
2024-03-05T06:48:29.302Z,90.50
2024-03-05T06:49:29.263Z,84.20
2024-03-05T06:50:29.229Z,83.10
2024-03-05T06:51:29.216Z,100.80
2024-03-05T06:52:29.291Z,87.20
2024-03-05T06:53:29.231Z,86.50
2024-03-05T06:54:29.191Z,88.70
2024-03-05T06:55:29.190Z,80.70
2024-03-05T06:56:29.168Z,79.20
2024-03-05T06:57:29.175Z,78.80
2024-03-05T06:58:29.146Z,89.90
2024-03-05T06:59:29.140Z,78.00
2024-03-05T07:00:29.132Z,80.10
2024-03-05T07:01:29.275Z,76.60
2024-03-05T07:02:29.118Z,77.40
2024-03-05T07:03:29.082Z,86.70
2024-03-05T07:04:29.133Z,84.80
2024-03-05T07:05:29.060Z,78.50
2024-03-05T07:06:29.047Z,82.70
2024-03-05T07:07:29.071Z,87.70
2024-03-05T07:08:29.074Z,82.90
2024-03-05T07:09:29.037Z,85.40
2024-03-05T07:10:29.029Z,86.90
2024-03-05T07:11:29.064Z,95.50
2024-03-05T07:12:28.999Z,87.00
2024-03-05T07:13:29.019Z,91.20
2024-03-05T07:14:28.994Z,90.10
2024-03-05T07:15:28.950Z,93.10
2024-03-05T07:16:28.961Z,90.10
2024-03-05T07:17:28.939Z,84.30
2024-03-05T07:18:28.934Z,93.00
2024-03-05T07:19:28.968Z,92.60
2024-03-05T07:20:28.900Z,92.40
2024-03-05T07:21:28.894Z,94.30
2024-03-05T07:22:28.884Z,98.60
2024-03-05T07:23:28.875Z,95.40
2024-03-05T07:24:28.862Z,96.40
2024-03-05T07:25:28.894Z,93.60
2024-03-05T07:26:28.826Z,94.70
2024-03-05T07:27:28.816Z,90.50
2024-03-05T07:28:28.873Z,90.70
2024-03-05T07:29:28.818Z,98.70
2024-03-05T07:30:28.773Z,95.90
2024-03-05T07:31:28.787Z,102.80
2024-03-05T07:32:28.771Z,106.40
2024-03-05T07:33:28.755Z,105.40
2024-03-05T07:34:28.759Z,99.00
2024-03-05T07:35:28.726Z,92.80
2024-03-05T07:36:28.720Z,99.80
2024-03-05T07:37:28.778Z,102.10
2024-03-05T07:38:28.711Z,103.50
2024-03-05T07:39:28.667Z,102.40
2024-03-05T07:40:28.676Z,105.60
2024-03-05T07:41:33.834Z,101.50
2024-03-05T07:42:28.658Z,107.20
2024-03-05T07:43:28.818Z,106.40
2024-03-05T07:44:28.732Z,103.40
2024-03-05T07:45:28.612Z,97.20
2024-03-05T07:46:28.620Z,93.90
2024-03-05T07:47:28.592Z,101.20
2024-03-05T07:48:28.587Z,97.60
2024-03-05T07:49:28.644Z,104.80
2024-03-05T07:50:28.549Z,106.30
2024-03-05T07:51:29.617Z,99.50
2024-03-05T07:52:28.601Z,98.40
2024-03-05T07:53:28.536Z,101.70
2024-03-05T07:54:28.507Z,101.40
2024-03-05T07:55:32.150Z,99.70
2024-03-05T07:56:28.608Z,104.70
2024-03-05T07:57:28.496Z,108.30
2024-03-05T07:58:28.495Z,100.90
2024-03-05T07:59:28.447Z,107.90
2024-03-05T08:00:28.438Z,102.30
2024-03-05T08:01:28.497Z,104.50
2024-03-05T08:02:28.405Z,109.20
2024-03-05T08:03:28.448Z,104.80
2024-03-05T08:04:28.423Z,105.00
2024-03-05T08:05:28.421Z,107.10
2024-03-05T08:06:28.370Z,104.10
2024-03-05T08:07:28.387Z,103.80
2024-03-05T08:08:28.354Z,103.10
2024-03-05T08:09:28.349Z,103.00
2024-03-05T08:10:28.356Z,98.50
2024-03-05T08:11:28.372Z,95.60
2024-03-05T08:12:28.309Z,95.90
2024-03-05T08:13:28.319Z,91.70
2024-03-05T08:14:28.275Z,97.50
2024-03-05T08:15:28.266Z,103.40
2024-03-05T08:16:28.291Z,93.50
2024-03-05T08:17:28.283Z,89.10
2024-03-05T08:18:28.253Z,88.50
2024-03-05T08:19:28.280Z,84.80
2024-03-05T08:20:28.241Z,86.70
2024-03-05T08:21:28.211Z,80.20
2024-03-05T08:22:28.188Z,80.10
2024-03-05T08:23:28.200Z,77.60
2024-03-05T08:24:28.158Z,79.10
2024-03-05T08:25:28.173Z,80.30
2024-03-05T08:26:28.142Z,80.40
2024-03-05T08:27:28.121Z,73.40
2024-03-05T08:28:28.153Z,74.50
2024-03-05T08:29:28.123Z,76.00
2024-03-05T08:30:28.092Z,81.50
2024-03-05T08:31:28.120Z,75.90
2024-03-05T08:32:28.087Z,74.80
2024-03-05T08:33:28.148Z,75.30
2024-03-05T08:34:28.099Z,75.40
2024-03-05T08:35:28.044Z,75.10
2024-03-05T08:36:28.020Z,71.80
2024-03-05T08:37:28.044Z,71.30
2024-03-05T08:38:28.012Z,76.90
2024-03-05T08:39:27.998Z,74.80
2024-03-05T08:40:28.027Z,73.10
2024-03-05T08:41:27.979Z,73.40
2024-03-05T08:42:27.964Z,76.30
2024-03-05T08:43:28.005Z,71.50
2024-03-05T08:44:27.943Z,77.00
2024-03-05T08:45:27.928Z,74.20
2024-03-05T08:46:27.940Z,77.30
2024-03-05T08:47:27.935Z,74.50
2024-03-05T08:48:27.915Z,80.10
2024-03-05T08:49:27.914Z,78.90
2024-03-05T08:50:27.859Z,81.50
2024-03-05T08:51:27.851Z,81.60
2024-03-05T08:52:27.879Z,80.50
2024-03-05T08:53:27.845Z,70.00
2024-03-05T08:54:28.072Z,74.20
2024-03-05T08:55:28.186Z,73.90
2024-03-05T08:56:27.897Z,75.10
2024-03-05T08:57:27.803Z,78.20
2024-03-05T08:58:27.964Z,76.90
2024-03-05T08:59:27.837Z,73.80
2024-03-05T09:00:37.168Z,72.90
2024-03-05T09:01:27.982Z,77.40
2024-03-05T09:02:27.798Z,73.90
2024-03-05T09:03:27.801Z,72.80
2024-03-05T09:04:27.806Z,71.60
2024-03-05T09:05:27.771Z,71.40
2024-03-05T09:06:27.755Z,72.20
2024-03-05T09:07:27.808Z,74.50
2024-03-05T09:08:27.753Z,69.50
2024-03-05T09:09:27.740Z,71.10
2024-03-05T09:10:28.020Z,70.40
2024-03-05T09:11:27.746Z,70.80
2024-03-05T09:12:27.681Z,74.40
2024-03-05T09:13:27.709Z,69.70
2024-03-05T09:14:27.631Z,69.20
2024-03-05T09:15:27.642Z,71.20
2024-03-05T09:16:27.625Z,72.20
2024-03-05T09:17:27.596Z,77.00
2024-03-05T09:18:27.604Z,72.20
2024-03-05T09:19:27.605Z,78.30
2024-03-05T09:20:27.619Z,74.70
2024-03-05T09:21:27.581Z,75.20
2024-03-05T09:22:27.546Z,74.60
2024-03-05T09:23:27.542Z,75.60
2024-03-05T09:24:27.517Z,70.20
2024-03-05T09:25:27.529Z,72.20
2024-03-05T09:26:27.534Z,70.30
2024-03-05T09:27:27.491Z,72.70
2024-03-05T09:28:27.489Z,70.10
2024-03-05T09:29:28.513Z,69.40
2024-03-05T09:30:27.476Z,72.30
2024-03-05T09:31:27.464Z,70.70
2024-03-05T09:32:27.467Z,68.50
2024-03-05T09:33:27.454Z,71.00
2024-03-05T09:34:27.461Z,70.50
2024-03-05T09:35:27.368Z,70.50
2024-03-05T09:36:27.411Z,67.20
2024-03-05T09:37:27.368Z,68.70
2024-03-05T09:38:27.348Z,72.70
2024-03-05T09:39:27.370Z,67.00
2024-03-05T09:40:27.340Z,71.00
2024-03-05T09:41:27.316Z,73.80
2024-03-05T09:42:27.309Z,71.50
2024-03-05T09:43:27.370Z,72.10
2024-03-05T09:44:27.287Z,68.90
2024-03-05T09:45:27.366Z,69.30
2024-03-05T09:46:27.314Z,69.00
2024-03-05T09:47:27.376Z,69.90
2024-03-05T09:48:27.301Z,71.10
2024-03-05T09:49:29.015Z,67.40
2024-03-05T09:50:27.359Z,69.60
2024-03-05T09:51:27.267Z,70.30
2024-03-05T09:52:27.205Z,71.90
2024-03-05T09:53:27.215Z,69.60
2024-03-05T09:54:27.855Z,69.80
2024-03-05T09:55:27.251Z,71.90
2024-03-05T09:56:27.196Z,67.80
2024-03-05T09:57:27.115Z,67.20
2024-03-05T09:58:27.399Z,66.50
2024-03-05T09:59:27.176Z,70.10
2024-03-05T10:00:27.128Z,73.30
2024-03-05T10:01:27.170Z,67.80
2024-03-05T10:02:29.064Z,68.40
2024-03-05T10:03:27.077Z,67.80
2024-03-05T10:04:27.104Z,69.30
2024-03-05T10:05:27.131Z,71.60
2024-03-05T10:06:27.086Z,66.00
2024-03-05T10:07:27.282Z,67.70
2024-03-05T10:08:27.040Z,66.30
2024-03-05T10:09:27.012Z,66.00
2024-03-05T10:10:27.109Z,69.00
2024-03-05T10:11:27.119Z,64.50
2024-03-05T10:12:26.999Z,68.30
2024-03-05T10:13:26.993Z,64.40
2024-03-05T10:14:26.918Z,66.50
2024-03-05T10:15:27.469Z,67.60
2024-03-05T10:16:26.914Z,65.70
2024-03-05T10:17:26.925Z,64.90
2024-03-05T10:18:26.861Z,65.40
2024-03-05T10:19:26.957Z,68.60
2024-03-05T10:20:26.910Z,68.60
2024-03-05T10:21:26.858Z,71.20
2024-03-05T10:22:26.863Z,70.10
2024-03-05T10:23:29.061Z,75.10
2024-03-05T10:24:26.799Z,69.00
2024-03-05T10:25:26.837Z,70.20
2024-03-05T10:26:26.773Z,70.30
2024-03-05T10:27:26.761Z,69.00
2024-03-05T10:28:26.809Z,72.70
2024-03-05T10:29:26.745Z,75.90
2024-03-05T10:30:26.737Z,72.10
2024-03-05T10:31:26.825Z,74.70
2024-03-05T10:32:26.734Z,70.80
2024-03-05T10:33:26.732Z,68.90
2024-03-05T10:34:26.722Z,73.50
2024-03-05T10:35:27.076Z,73.70
2024-03-05T10:36:26.666Z,71.10
2024-03-05T10:37:26.701Z,73.00
2024-03-05T10:38:26.643Z,75.10
2024-03-05T10:39:26.653Z,71.90
2024-03-05T10:40:26.645Z,71.30
2024-03-05T10:41:31.927Z,70.20
2024-03-05T10:42:26.599Z,71.00
2024-03-05T10:43:26.599Z,73.10
2024-03-05T10:44:26.595Z,74.20
2024-03-05T10:45:26.577Z,72.90
2024-03-05T10:46:26.590Z,74.30
2024-03-05T10:47:29.194Z,74.60
2024-03-05T10:48:26.643Z,75.10
2024-03-05T10:49:26.553Z,74.80
2024-03-05T10:50:26.539Z,74.90
2024-03-05T10:51:26.502Z,70.20
2024-03-05T10:52:26.544Z,73.00
2024-03-05T10:53:26.485Z,72.60
2024-03-05T10:54:26.487Z,76.40
2024-03-05T10:55:26.613Z,73.90
2024-03-05T10:56:29.295Z,77.80
2024-03-05T10:57:26.444Z,70.00
2024-03-05T10:58:26.419Z,71.40
2024-03-05T10:59:26.475Z,69.70
2024-03-05T11:00:26.419Z,69.20
2024-03-05T11:01:26.473Z,68.10
2024-03-05T11:02:26.477Z,68.00
2024-03-05T11:03:26.381Z,76.90
2024-03-05T11:04:26.380Z,71.10
2024-03-05T11:05:26.354Z,67.50
2024-03-05T11:06:26.331Z,66.30
2024-03-05T11:07:26.330Z,70.10
2024-03-05T11:08:26.934Z,68.90
2024-03-05T11:09:26.305Z,68.80
2024-03-05T11:10:26.372Z,68.50
2024-03-05T11:11:26.416Z,65.70
2024-03-05T11:12:26.256Z,68.80
2024-03-05T11:13:26.324Z,70.50
2024-03-05T11:14:26.240Z,66.70
2024-03-05T11:15:26.246Z,66.90
2024-03-05T11:16:27.688Z,70.20
2024-03-05T11:17:26.362Z,67.20
2024-03-05T11:18:26.204Z,69.10
2024-03-05T11:19:26.211Z,67.80
2024-03-05T11:20:26.258Z,65.40
2024-03-05T11:21:26.162Z,65.30
2024-03-05T11:22:26.240Z,65.50
2024-03-05T11:23:26.128Z,62.30
2024-03-05T11:24:26.126Z,67.60
2024-03-05T11:25:26.164Z,66.50
2024-03-05T11:26:26.106Z,69.40
2024-03-05T11:27:26.089Z,64.60
2024-03-05T11:28:26.110Z,68.30
2024-03-05T11:29:26.069Z,67.30
2024-03-05T11:30:26.072Z,69.30
2024-03-05T11:31:26.104Z,68.30
2024-03-05T11:32:26.072Z,67.90
2024-03-05T11:33:26.029Z,72.60
2024-03-05T11:34:26.017Z,66.20
2024-03-05T11:35:26.012Z,67.10
2024-03-05T11:36:25.984Z,69.60
2024-03-05T11:37:25.997Z,64.90
2024-03-05T11:38:25.969Z,67.20
2024-03-05T11:39:25.959Z,64.10
2024-03-05T11:40:26.001Z,64.70
2024-03-05T11:41:25.946Z,67.90
2024-03-05T11:42:25.919Z,63.90
2024-03-05T11:43:25.932Z,67.60
2024-03-05T11:44:25.905Z,66.10
2024-03-05T11:45:25.919Z,64.50
2024-03-05T11:46:25.905Z,65.70
2024-03-05T11:47:25.977Z,67.70
2024-03-05T11:48:25.856Z,64.20
2024-03-05T11:49:25.913Z,68.30
2024-03-05T11:50:25.832Z,69.60
2024-03-05T11:51:25.869Z,69.10
2024-03-05T11:52:25.841Z,67.50
2024-03-05T11:53:25.796Z,67.70
2024-03-05T11:54:25.780Z,63.80
2024-03-05T11:55:25.862Z,66.40
2024-03-05T11:56:25.779Z,64.90
2024-03-05T11:57:25.779Z,66.40
2024-03-05T11:58:25.966Z,68.90
2024-03-05T11:59:25.722Z,65.60
2024-03-05T12:00:25.723Z,70.20
2024-03-05T12:01:25.776Z,68.70
2024-03-05T12:02:25.801Z,67.50
2024-03-05T12:03:25.708Z,67.50
2024-03-05T12:04:25.704Z,67.70
2024-03-05T12:05:25.747Z,67.50
2024-03-05T12:06:25.679Z,66.50
2024-03-05T12:07:25.664Z,64.80
2024-03-05T12:08:25.623Z,71.40
2024-03-05T12:09:25.627Z,69.30
2024-03-05T12:10:25.644Z,64.90
2024-03-05T12:11:25.632Z,65.20
2024-03-05T12:12:25.611Z,71.50
2024-03-05T12:13:25.578Z,70.40
2024-03-05T12:14:25.557Z,68.90
2024-03-05T12:15:25.562Z,69.00
2024-03-05T12:16:25.573Z,71.70
2024-03-05T12:17:26.120Z,68.00
2024-03-05T12:18:25.514Z,69.00
2024-03-05T12:19:25.522Z,68.20
2024-03-05T12:20:25.498Z,68.80
2024-03-05T12:21:27.568Z,70.90
2024-03-05T12:22:25.485Z,67.80
2024-03-05T12:23:41.004Z,63.90
2024-03-05T12:24:25.530Z,68.90
2024-03-05T12:25:25.457Z,65.60
2024-03-05T12:26:25.430Z,65.80
2024-03-05T12:27:25.422Z,68.00
2024-03-05T12:28:25.448Z,63.00
2024-03-05T12:29:25.406Z,62.20
2024-03-05T12:30:25.763Z,62.60
2024-03-05T12:31:25.440Z,60.40
2024-03-05T12:32:25.392Z,60.00
2024-03-05T12:33:25.369Z,60.90
2024-03-05T12:34:25.361Z,66.10
2024-03-05T12:35:25.312Z,64.40
2024-03-05T12:36:25.317Z,64.40
2024-03-05T12:37:25.352Z,64.80
2024-03-05T12:38:25.299Z,66.90
2024-03-05T12:39:25.277Z,63.20
2024-03-05T12:40:25.271Z,62.60
2024-03-05T12:41:25.263Z,59.80
2024-03-05T12:42:25.237Z,59.30
2024-03-05T12:43:25.260Z,61.30
2024-03-05T12:44:25.205Z,57.40
2024-03-05T12:45:25.220Z,61.40
2024-03-05T12:46:25.206Z,61.70
2024-03-05T12:47:25.213Z,57.10
2024-03-05T12:48:25.228Z,56.50
2024-03-05T12:49:25.200Z,57.40
2024-03-05T12:50:25.154Z,58.40
2024-03-05T12:51:25.152Z,60.30
2024-03-05T12:52:25.126Z,63.00